Flight Track Log - Related Links

Times and Time Zones

All times are in EDT time to prevent confusion due to time zone crossing. See the EJA922 flight status page for this flight to view local times or setup timezone preferences in your user account.

Time Position Orientation Groundspeed Altitude Reporting Facility
EDT Latitude Longitude Course Direction KTS MPH feet Rate Location/Type
Sun 08:50:54 PM 38.1947 -122.3042 180° South 190 219 1,500  Level Oakland Center
Sun 08:51:55 PM 38.1706 -122.3764 247° West 226 260 5,300 3,659 Climbing Oakland Center
Sun 08:52:57 PM 38.1019 -122.4078 200° South 252 290 9,000 3,171 Climbing Oakland Center
Sun 08:53:58 PM 38.0178 -122.4458 200° South 305 351 11,800 2,508 Climbing Oakland Center
Sun 08:54:59 PM 37.9178 -122.4328 174° South 360 414 14,100 2,244 Climbing Oakland Center
Sun 08:55:00 PM 37.7556 -122.3057 117° Southeast  Level FlightAware Approximate
Sun 08:56:00 PM 37.7059 -122.2000 180° South  Level FlightAware Approximate
Sun 08:56:01 PM 37.8394 -122.3458 139° Southeast 369 425 16,400  Level Oakland Center
Sun 08:57:02 PM 37.7614 -122.2592 139° Southeast 372 428 18,400 1,869 Climbing Oakland Center
Sun 08:58:03 PM 37.6817 -122.1692 138° Southeast 379 436 20,200 1,707 Climbing Oakland Center
Sun 08:59:05 PM 37.6019 -122.0797 138° Southeast 382 440 21,900 1,610 Climbing Oakland Center
Sun 09:00:06 PM 37.5197 -121.9883 139° Southeast 390 449 23,500 1,707 Climbing Oakland Center
Sun 09:01:08 PM 37.4197 -121.8767 138° Southeast 398 458 25,400 1,415 Climbing Oakland Center
Sun 09:02:09 PM 37.3392 -121.7889 139° Southeast 407 468 26,400 787 Climbing Oakland Center
Sun 09:03:10 PM 37.2503 -121.6931 139° Southeast 417 480 27,000 293 Climbing Oakland Center
Sun 09:04:12 PM 37.1542 -121.5872 139° Southeast 447 514 27,000  Level Oakland Center
Sun 09:05:13 PM 37.0478 -121.4667 138° Southeast 477 549 27,000  Level Oakland Center
Sun 09:06:15 PM 36.9467 -121.3594 140° Southeast 479 551 27,000  Level Oakland Center
Sun 09:07:17 PM 36.8489 -121.2511 138° Southeast 473 544 27,000  Level Oakland Center
Sun 09:08:18 PM 36.7478 -121.1503 141° Southeast 469 540 27,000  Level Oakland Center
Sun 09:09:20 PM 36.6281 -121.0222 139° Southeast 470 541 27,000  Level Oakland Center
Sun 09:10:21 PM 36.5294 -120.9133 138° Southeast 474 545 27,000  Level Oakland Center
Sun 09:11:22 PM 36.4300 -120.8061 139° Southeast 473 544 27,000  Level Oakland Center
Sun 09:12:24 PM 36.3297 -120.6983 139° Southeast 475 547 27,000  Level Oakland Center
Sun 09:13:25 PM 36.2286 -120.5928 140° Southeast 475 547 27,000  Level Oakland Center
Sun 09:14:27 PM 36.1286 -120.4847 139° Southeast 476 548 27,000  Level Oakland Center
Sun 09:15:28 PM 36.0283 -120.3792 140° Southeast 474 545 27,000  Level Oakland Center
Sun 09:16:29 PM 35.9281 -120.2700 139° Southeast 477 549 27,000  Level Oakland Center
Sun 09:17:31 PM 35.8267 -120.1658 140° Southeast 474 545 27,000  Level Oakland Center
Sun 09:18:32 PM 35.7264 -120.0600 139° Southeast 472 543 27,000  Level Oakland Center
Sun 09:19:34 PM 35.6247 -119.9569 141° Southeast 470 541 27,000  Level Oakland Center
Sun 09:20:32 PM 35.5158 -119.8656 146° Southeast 471 542 27,000  Level Los Angeles Center
Sun 09:21:34 PM 35.4072 -119.7722 145° Southeast 473 544 27,000  Level Los Angeles Center
Sun 09:22:36 PM 35.2783 -119.6606 145° Southeast 470 541 27,000 -48 Level Los Angeles Center
Sun 09:23:39 PM 35.1706 -119.5678 145° Southeast 472 543 26,900 -1,210 Descending Los Angeles Center
Sun 09:24:40 PM 35.0619 -119.4758 145° Southeast 474 545 24,500 -2,557 Descending Los Angeles Center
Sun 09:25:41 PM 34.9564 -119.3864 145° Southeast 465 535 21,700 -2,732 Descending Los Angeles Center
Sun 09:26:43 PM 34.8567 -119.3014 145° Southeast 442 509 18,900 -2,806 Descending Los Angeles Center
Sun 09:27:45 PM 34.7628 -119.2200 145° Southeast 418 481 15,900 -2,806 Descending Los Angeles Center
Sun 09:28:47 PM 34.6692 -119.1425 146° Southeast 409 471 13,100 -2,419 Descending Los Angeles Center
Sun 09:29:49 PM 34.5733 -119.0633 146° Southeast 382 440 10,900 -1,024 Descending Los Angeles Center
Sun 09:30:50 PM 34.5122 -119.0136 146° Southeast 333 383 11,000 -581 Climbing Los Angeles Center
Sun 09:31:53 PM 34.4231 -118.9211 139° Southeast 300 345 9,700 -1,008 Descending Los Angeles Center
Sun 09:32:55 PM 34.3844 -118.8319 118° Southeast 303 349 8,900 -341 Descending Los Angeles Center
Sun 09:33:56 PM 34.3458 -118.7514 120° Southeast 279 321 9,000 -98 Climbing Los Angeles Center
Sun 09:34:58 PM 34.3075 -118.6689 119° Southeast 280 322 8,700 -532 Descending Los Angeles Center
Sun 09:36:00 PM 34.2658 -118.5833 120° Southeast 292 336 7,900 -919 Descending Los Angeles Center
Sun 09:37:02 PM 34.2269 -118.4978 119° Southeast 293 337 6,800 -1,113 Descending Los Angeles Center
Sun 09:38:04 PM 34.1875 -118.4239 123° Southeast 267 307 5,600 -1,415 Descending Los Angeles Center
Sun 09:39:05 PM 34.1378 -118.3569 132° Southeast 264 304 3,900 -1,467 Descending Los Angeles Center
Sun 09:40:19 PM 34.0736 -118.3811 197° South 214 246 2,300 -1,324 Descending Los Angeles Center
Sun 09:41:21 PM 34.0411 -118.4231 227° Southwest 184 212 900 -1,016 Descending Los Angeles Center
Sun 09:42:23 PM 34.0122 -118.4556 223° Southwest 159 183 200 -677 Descending Los Angeles Center
Sun 09:44:00 PM 34.0158 -118.4513 180° South  Level Estimated

Login

Don't have an account? Register now (free) for customized features, flight alerts, and more!